Time;durP1;ratioP1;P1;durP2;ratioP2;P2;SDS_P1;SDS_P2;PMS_P1;PMS_P2;Temp;Humidity;BMP_temperature;BMP_pressure;BME280_temperature;BME280_humidity;BME280_pressure;Samples;Min_cycle;Max_cycle;Signal;HPM_P1;HPM_P2
2024/04/14 00:01:40;;;;;;;8.05;1.73;;;;;;;10.13;65.38;100748.19;5369343;26;20004;-51
2024/04/14 00:04:07;;;;;;;4.72;1.52;;;;;;;10.12;65.54;100743.84;5362629;26;20031;-52
2024/04/14 00:06:34;;;;;;;3.10;1.30;;;;;;;10.07;65.73;100743.84;5366078;26;20875;-53
2024/04/14 00:09:01;;;;;;;5.15;1.45;;;;;;;10.05;65.45;100744.63;5365300;26;20008;-51
2024/04/14 00:11:28;;;;;;;8.82;1.00;;;;;;;9.97;65.90;100742.84;5371340;26;20012;-49
2024/04/14 00:13:55;;;;;;;3.28;0.82;;;;;;;9.92;66.03;100749.69;5368370;26;20009;-50
2024/04/14 00:16:22;;;;;;;2.90;1.08;;;;;;;9.87;66.05;100756.53;5361795;26;20008;-53
2024/04/14 00:18:49;;;;;;;5.00;1.67;;;;;;;9.86;65.88;100755.66;5364580;26;20000;-47
2024/04/14 00:21:21;;;;;;;4.13;1.13;;;;;;;9.81;65.83;100751.28;5364103;26;20000;-51
2024/04/14 00:23:50;;;;;;;3.55;1.80;;;;;;;9.82;66.10;100758.19;5370794;26;20065;-53
2024/04/14 00:26:17;;;;;;;4.40;1.42;;;;;;;9.82;65.88;100759.06;5357300;26;20004;-51
2024/04/14 00:28:45;;;;;;;9.75;1.40;;;;;;;9.82;65.98;100763.38;5360435;26;20015;-50
2024/04/14 00:31:11;;;;;;;1.60;0.82;;;;;;;9.83;65.98;100767.72;5365879;26;20011;-48
2024/04/14 00:33:38;;;;;;;3.03;1.20;;;;;;;9.81;65.88;100766.81;5372260;26;20012;-52
2024/04/14 00:36:05;;;;;;;3.03;1.02;;;;;;;9.82;65.64;100773.72;5371825;26;20000;-52
2024/04/14 00:38:32;;;;;;;4.72;0.95;;;;;;;9.77;65.95;100768.50;5355809;26;20020;-50
2024/04/14 00:40:59;;;;;;;2.13;1.00;;;;;;;9.80;65.72;100778.00;5371995;26;20036;-51
2024/04/14 00:43:27;;;;;;;5.22;1.42;;;;;;;9.79;65.83;100776.28;5369633;26;20009;-49
2024/04/14 00:45:53;;;;;;;5.65;0.93;;;;;;;9.75;65.85;100770.19;5372140;26;20073;-53
2024/04/14 00:48:22;;;;;;;3.15;0.93;;;;;;;9.72;65.56;100768.44;5357788;26;20008;-50
2024/04/14 00:50:50;;;;;;;4.63;0.88;;;;;;;9.67;65.64;100775.28;5365867;26;19997;-50
2024/04/14 00:53:18;;;;;;;3.63;1.08;;;;;;;9.68;65.59;100782.19;5371554;26;20441;-52
2024/04/14 00:55:45;;;;;;;4.32;1.08;;;;;;;9.67;65.45;100774.41;5362762;26;20078;-50
2024/04/14 00:58:12;;;;;;;7.22;1.30;;;;;;;9.67;65.50;100774.41;5371105;26;20080;-52
2024/04/14 01:00:39;;;;;;;5.50;1.45;;;;;;;9.66;65.39;100773.53;5353781;26;20434;-51
2024/04/14 01:03:07;;;;;;;3.92;0.65;;;;;;;9.64;65.58;100780.41;5372467;26;20012;-52
2024/04/14 01:05:34;;;;;;;4.88;0.90;;;;;;;9.60;65.62;100783.81;5370895;26;20019;-51
2024/04/14 01:08:01;;;;;;;4.72;0.88;;;;;;;9.60;65.27;100781.22;5355604;26;20000;-52
2024/04/14 01:10:29;;;;;;;2.00;1.13;;;;;;;9.55;65.56;100782.88;5369238;26;20392;-53
2024/04/14 01:12:56;;;;;;;6.22;1.17;;;;;;;9.54;65.48;100778.53;5361792;26;20010;-51
2024/04/14 01:15:23;;;;;;;5.30;1.25;;;;;;;9.51;65.62;100775.09;5370504;26;20024;-53
2024/04/14 01:17:50;;;;;;;4.47;1.30;;;;;;;9.50;65.47;100781.06;5372202;26;20012;-50
2024/04/14 01:20:18;;;;;;;4.60;0.95;;;;;;;9.48;65.20;100785.38;5372549;26;20078;-51
2024/04/14 01:22:45;;;;;;;4.97;1.17;;;;;;;9.44;65.59;100793.94;5366663;26;20404;-50
2024/04/14 01:25:11;;;;;;;4.55;1.00;;;;;;;9.44;65.52;100793.94;5363783;26;20083;-49
2024/04/14 01:27:40;;;;;;;2.95;0.90;;;;;;;9.42;65.73;100800.78;5371545;26;20411;-53
2024/04/14 01:30:08;;;;;;;4.13;1.02;;;;;;;9.37;65.78;100802.47;5371667;26;20015;-53
2024/04/14 01:32:36;;;;;;;4.50;1.05;;;;;;;9.34;65.54;100802.41;5374701;26;20626;-50
2024/04/14 01:35:03;;;;;;;7.32;1.15;;;;;;;9.33;65.72;100811.00;5361776;26;20575;-51
2024/04/14 01:37:30;;;;;;;2.45;1.02;;;;;;;9.28;65.66;100812.69;5373148;26;20019;-48
2024/04/14 01:39:57;;;;;;;6.10;1.10;;;;;;;9.24;65.60;100807.44;5374491;26;20015;-52
2024/04/14 01:42:24;;;;;;;3.65;1.08;;;;;;;9.25;65.54;100809.19;5374218;26;20015;-54
2024/04/14 01:44:50;;;;;;;2.33;1.05;;;;;;;9.24;65.33;100814.31;5361105;26;20000;-53
2024/04/14 01:47:18;;;;;;;3.88;1.08;;;;;;;9.22;65.46;100819.47;5369121;26;20132;-51
2024/04/14 01:49:45;;;;;;;1.95;0.75;;;;;;;9.21;65.42;100822.91;5365810;26;20728;-51
2024/04/14 01:52:12;;;;;;;5.18;1.00;;;;;;;9.20;65.55;100821.19;5370554;26;20012;-50
2024/04/14 01:54:39;;;;;;;5.72;1.23;;;;;;;9.16;65.34;100811.63;5365093;26;20017;-49
2024/04/14 01:57:06;;;;;;;4.80;0.75;;;;;;;9.16;65.36;100809.06;5366935;26;20010;-50
2024/04/14 01:59:33;;;;;;;9.63;1.50;;;;;;;9.16;65.47;100810.75;5366275;26;20082;-49
2024/04/14 02:01:59;;;;;;;3.70;1.00;;;;;;;9.12;65.70;100808.13;5362724;26;20030;-53
2024/04/14 02:04:26;;;;;;;4.50;1.67;;;;;;;9.10;65.60;100819.28;5369032;26;20016;-52
2024/04/14 02:06:53;;;;;;;3.70;0.80;;;;;;;9.09;66.05;100822.72;5370924;26;20050;-50
2024/04/14 02:09:20;;;;;;;6.60;0.85;;;;;;;9.05;66.16;100826.09;5369372;26;20018;-49
2024/04/14 02:11:46;;;;;;;8.18;1.23;;;;;;;9.05;65.80;100826.09;5370844;26;20456;-51
2024/04/14 02:14:13;;;;;;;8.20;1.13;;;;;;;9.03;66.02;100827.78;5373155;26;20016;-54
2024/04/14 02:16:40;;;;;;;4.22;0.82;;;;;;;9.02;66.19;100826.06;5370469;26;20009;-49
2024/04/14 02:19:07;;;;;;;3.58;0.90;;;;;;;8.98;65.92;100826.00;5356293;26;20015;-50
2024/04/14 02:21:34;;;;;;;3.20;0.82;;;;;;;8.99;66.15;100827.72;5369968;26;20001;-49
2024/04/14 02:24:01;;;;;;;6.65;0.85;;;;;;;8.97;66.31;100824.25;5353284;26;20012;-51
2024/04/14 02:26:28;;;;;;;4.47;0.93;;;;;;;8.95;65.79;100833.69;5356169;26;20004;-51
2024/04/14 02:28:54;;;;;;;13.40;1.40;;;;;;;8.93;66.22;100832.81;5354482;26;20032;-50
2024/04/14 02:31:21;;;;;;;5.47;1.27;;;;;;;8.93;65.88;100827.66;5361452;26;20004;-50
2024/04/14 02:33:48;;;;;;;4.63;1.35;;;;;;;8.91;65.77;100821.56;5354629;26;20012;-51
2024/04/14 02:36:16;;;;;;;6.30;1.05;;;;;;;8.90;66.27;100822.41;5356599;26;20051;-51
2024/04/14 02:38:42;;;;;;;3.03;1.38;;;;;;;8.88;66.18;100837.00;5360680;26;20012;-49
2024/04/14 02:41:09;;;;;;;4.45;0.98;;;;;;;8.87;65.93;100837.88;5354023;26;20036;-50
2024/04/14 02:43:36;;;;;;;6.75;1.08;;;;;;;8.85;66.50;100844.72;5355847;26;20033;-52
2024/04/14 02:46:03;;;;;;;3.20;0.77;;;;;;;8.84;66.31;100855.88;5355128;26;20445;-52
2024/04/14 02:48:30;;;;;;;8.43;0.90;;;;;;;8.81;66.19;100848.97;5355812;26;20027;-53
2024/04/14 02:50:57;;;;;;;8.65;1.33;;;;;;;8.82;65.71;100842.09;5354051;26;20028;-52
2024/04/14 02:53:25;;;;;;;5.32;1.73;;;;;;;8.80;66.18;100848.94;5355651;26;20015;-50
2024/04/14 02:55:52;;;;;;;2.78;1.10;;;;;;;8.80;66.02;100851.50;5356209;26;20091;-52
2024/04/14 02:58:19;;;;;;;2.50;0.70;;;;;;;8.78;66.05;100854.06;5356932;26;20008;-49
2024/04/14 03:00:45;;;;;;;6.95;1.95;;;;;;;8.76;65.89;100849.72;5353269;26;20028;-48
2024/04/14 03:03:12;;;;;;;6.65;1.00;;;;;;;8.74;65.81;100842.81;5355680;26;20000;-51
2024/04/14 03:05:39;;;;;;;5.32;0.90;;;;;;;8.72;66.31;100841.91;5366565;26;20004;-50
2024/04/14 03:08:06;;;;;;;7.38;1.13;;;;;;;8.70;66.07;100846.19;5363064;26;20015;-48
2024/04/14 03:10:34;;;;;;;2.45;0.85;;;;;;;8.69;65.91;100853.91;5365014;26;20012;-49
2024/04/14 03:13:01;;;;;;;5.30;1.23;;;;;;;8.65;65.79;100852.97;5358554;26;20000;-49
2024/04/14 03:15:27;;;;;;;5.97;0.50;;;;;;;8.60;66.07;100850.31;5353682;26;21275;-52
2024/04/14 03:17:54;;;;;;;3.45;1.00;;;;;;;8.53;65.81;100851.06;5344069;26;20019;-51
2024/04/14 03:20:21;;;;;;;3.08;0.55;;;;;;;8.56;65.71;100855.41;5359139;26;20779;-50
2024/04/14 03:22:48;;;;;;;1.98;0.70;;;;;;;8.49;65.49;100851.81;5355732;26;20001;-49
2024/04/14 03:25:15;;;;;;;8.05;0.90;;;;;;;8.44;65.42;100856.88;5356942;26;20021;-49
2024/04/14 03:27:42;;;;;;;6.72;1.00;;;;;;;8.42;65.49;100862.84;5367903;26;20004;-50
2024/04/14 03:30:09;;;;;;;5.07;1.05;;;;;;;8.39;65.73;100855.91;5356421;26;20004;-52
2024/04/14 03:32:36;;;;;;;3.22;1.45;;;;;;;8.38;65.62;100849.03;5363132;26;20004;-54
2024/04/14 03:35:03;;;;;;;3.97;0.95;;;;;;;8.37;65.96;100847.25;5368806;26;20010;-50
2024/04/14 03:37:30;;;;;;;5.30;0.75;;;;;;;8.37;65.78;100847.25;5361207;26;20004;-48
2024/04/14 03:39:57;;;;;;;3.65;0.70;;;;;;;8.33;65.48;100848.94;5366847;26;20444;-52
2024/04/14 03:42:24;;;;;;;3.53;0.80;;;;;;;8.33;65.67;100848.06;5356850;26;20005;-49
2024/04/14 03:44:50;;;;;;;6.30;0.75;;;;;;;8.30;65.58;100848.88;5359888;26;20048;-49
2024/04/14 03:47:17;;;;;;;4.97;0.82;;;;;;;8.30;65.77;100845.41;5358136;26;20026;-51
2024/04/14 03:49:44;;;;;;;6.13;0.95;;;;;;;8.28;65.37;100844.53;5361153;26;20018;-51
2024/04/14 03:52:11;;;;;;;2.15;0.65;;;;;;;8.25;65.56;100853.06;5358974;26;20083;-48
2024/04/14 03:54:38;;;;;;;5.82;0.80;;;;;;;8.22;65.77;100858.16;5356225;26;20467;-54
2024/04/14 03:57:05;;;;;;;4.28;0.98;;;;;;;8.21;65.51;100851.28;5355251;26;20019;-52
2024/04/14 03:59:31;;;;;;;2.83;0.65;;;;;;;8.17;65.54;100852.91;5356777;26;20019;-52
2024/04/14 04:01:58;;;;;;;2.55;0.77;;;;;;;8.15;65.28;100852.03;5349875;26;20047;-48
2024/04/14 04:04:25;;;;;;;5.60;1.08;;;;;;;8.12;65.60;100846.78;5365433;26;20015;-50
2024/04/14 04:06:52;;;;;;;3.47;1.05;;;;;;;8.11;65.24;100857.97;5367347;26;20449;-50
2024/04/14 04:09:19;;;;;;;1.73;0.63;;;;;;;8.07;65.69;100854.44;5364336;26;20012;-52
2024/04/14 04:11:46;;;;;;;0.93;0.70;;;;;;;8.04;65.44;100856.09;5370083;26;20036;-47
2024/04/14 04:14:13;;;;;;;5.30;0.85;;;;;;;8.03;65.86;100852.63;5363822;26;20008;-49
2024/04/14 04:16:39;;;;;;;2.75;0.65;;;;;;;7.98;65.86;100860.25;5364939;26;20187;-52
2024/04/14 04:19:10;;;;;;;3.72;0.93;;;;;;;7.96;65.63;100856.78;5346460;26;20016;-50
2024/04/14 04:21:52;;;;;;;4.13;0.82;;;;;;;7.92;66.33;100855.00;5366947;26;20087;-53
2024/04/14 04:24:19;;;;;;;3.28;0.82;;;;;;;7.89;65.92;100849.75;5362160;26;20000;-51
2024/04/14 04:26:50;;;;;;;5.90;1.00;;;;;;;7.86;66.04;100854.84;5364177;26;20081;-49
2024/04/14 04:29:17;;;;;;;5.65;1.33;;;;;;;7.81;66.45;100857.31;5362403;26;20474;-52
2024/04/14 04:31:44;;;;;;;6.93;0.95;;;;;;;7.78;66.11;100862.44;5360140;26;20000;-52
2024/04/14 04:34:10;;;;;;;2.63;0.95;;;;;;;7.72;66.82;100863.16;5365118;26;20001;-50
2024/04/14 04:36:37;;;;;;;2.88;0.88;;;;;;;7.69;66.75;100864.78;5358471;26;20028;-48
2024/04/14 04:39:04;;;;;;;4.95;0.95;;;;;;;7.66;66.40;100863.03;5350077;26;20005;-50
2024/04/14 04:41:31;;;;;;;5.45;0.88;;;;;;;7.62;66.92;100866.38;5363365;26;20013;-52
2024/04/14 04:43:58;;;;;;;3.13;1.10;;;;;;;7.55;67.23;100860.22;5368008;26;19996;-49
2024/04/14 04:46:25;;;;;;;7.75;0.93;;;;;;;7.52;66.79;100861.84;5351854;26;20008;-51
2024/04/14 04:48:51;;;;;;;3.58;0.60;;;;;;;7.50;66.77;100863.53;5361312;26;20018;-50
2024/04/14 04:51:18;;;;;;;1.77;1.05;;;;;;;7.48;67.09;100857.44;5360529;26;20041;-50
2024/04/14 04:53:45;;;;;;;6.30;1.30;;;;;;;7.44;66.59;100857.38;5345215;26;20016;-54
2024/04/14 04:56:12;;;;;;;6.88;0.60;;;;;;;7.40;66.96;100863.28;5352111;26;20015;-50
2024/04/14 04:58:39;;;;;;;6.07;0.90;;;;;;;7.41;66.88;100867.63;5352570;26;20015;-50
2024/04/14 05:01:06;;;;;;;2.17;1.08;;;;;;;7.36;67.04;100869.22;5357446;26;20495;-48
2024/04/14 05:03:33;;;;;;;2.85;0.85;;;;;;;7.33;66.88;100877.75;5349975;26;20016;-52
2024/04/14 05:06:02;;;;;;;4.63;1.25;;;;;;;7.32;67.14;100882.84;5350594;26;20023;-53
2024/04/14 05:08:29;;;;;;;3.15;0.80;;;;;;;7.32;67.18;100878.59;5355893;26;20005;-52
2024/04/14 05:10:57;;;;;;;3.53;1.20;;;;;;;7.32;66.91;100872.56;5360314;26;20015;-51
2024/04/14 05:13:26;;;;;;;5.05;1.23;;;;;;;7.30;66.90;100880.25;5369318;26;20374;-53
2024/04/14 05:15:54;;;;;;;4.97;0.82;;;;;;;7.30;66.69;100887.13;5359441;26;20011;-48
2024/04/14 05:18:21;;;;;;;1.63;1.38;;;;;;;7.28;67.10;100886.19;5360088;26;20021;-51
2024/04/14 05:20:48;;;;;;;5.22;1.10;;;;;;;7.28;66.88;100894.81;5356671;26;20030;-50
2024/04/14 05:23:15;;;;;;;1.48;0.60;;;;;;;7.27;66.95;100892.19;5356155;26;20005;-49
2024/04/14 05:25:43;;;;;;;5.35;0.80;;;;;;;7.27;66.80;100894.78;5356470;26;20593;-51
2024/04/14 05:28:10;;;;;;;4.68;0.77;;;;;;;7.24;66.81;100886.97;5362888;26;20011;-48
2024/04/14 05:30:39;;;;;;;3.08;0.43;;;;;;;7.24;66.68;100889.53;5355774;26;20094;-51
2024/04/14 05:33:06;;;;;;;3.97;0.95;;;;;;;7.25;66.94;100896.41;5362533;26;20015;-52
2024/04/14 05:35:34;;;;;;;3.75;0.95;;;;;;;7.25;67.00;100899.88;5360439;26;20012;-51
2024/04/14 05:38:01;;;;;;;3.33;0.98;;;;;;;7.27;66.42;100910.22;5362901;26;20098;-53
2024/04/14 05:40:28;;;;;;;7.78;1.23;;;;;;;7.27;66.78;100905.06;5359785;26;20525;-51
2024/04/14 05:42:55;;;;;;;7.85;1.52;;;;;;;7.27;66.46;100910.22;5366671;26;20012;-50
2024/04/14 05:45:23;;;;;;;1.45;0.63;;;;;;;7.27;66.97;100913.69;5358973;26;20020;-51
2024/04/14 05:47:51;;;;;;;3.13;1.00;;;;;;;7.27;66.80;100923.13;5367333;26;22098;-49
2024/04/14 05:50:18;;;;;;;5.07;0.77;;;;;;;7.28;66.68;100919.69;5357213;26;20076;-50
2024/04/14 05:52:44;;;;;;;7.22;1.05;;;;;;;7.28;66.79;100922.28;5349170;26;20004;-51
2024/04/14 05:55:11;;;;;;;7.07;1.13;;;;;;;7.29;67.02;100913.69;5353501;26;20101;-56
2024/04/14 05:57:38;;;;;;;7.25;1.10;;;;;;;7.29;67.11;100918.84;5358116;26;20012;-55
2024/04/14 06:00:06;;;;;;;2.03;0.88;;;;;;;7.31;67.06;100923.25;5353412;26;20022;-49
2024/04/14 06:02:32;;;;;;;6.15;1.27;;;;;;;7.34;67.09;100932.75;5357708;26;20031;-49
2024/04/14 06:04:59;;;;;;;4.30;0.82;;;;;;;7.38;67.09;100939.72;5357279;26;19996;-51
2024/04/14 06:07:26;;;;;;;4.53;1.05;;;;;;;7.40;67.05;100935.47;5362983;26;20457;-50
2024/04/14 06:09:53;;;;;;;6.03;1.25;;;;;;;7.42;67.29;100941.53;5361871;26;20356;-53
2024/04/14 06:12:20;;;;;;;4.93;0.93;;;;;;;7.44;66.98;100939.84;5365281;26;20028;-53
2024/04/14 06:14:46;;;;;;;4.63;0.68;;;;;;;7.45;67.16;100944.19;5364516;26;20714;-49
2024/04/14 06:17:13;;;;;;;4.45;0.77;;;;;;;7.52;67.31;100952.06;5369486;26;20000;-53
2024/04/14 06:19:40;;;;;;;4.63;0.90;;;;;;;7.58;67.25;100957.38;5372425;26;20004;-53
2024/04/14 06:22:06;;;;;;;5.57;1.05;;;;;;;7.64;66.94;100961.81;5361778;26;20056;-52
2024/04/14 06:24:34;;;;;;;1.90;0.95;;;;;;;7.68;67.11;100954.19;5367563;26;20012;-48
2024/04/14 06:27:01;;;;;;;4.22;0.88;;;;;;;7.76;67.38;100956.06;5365312;26;20015;-51
2024/04/14 06:29:28;;;;;;;3.67;0.80;;;;;;;7.82;67.45;100951.06;5362801;26;20616;-54
2024/04/14 06:31:55;;;;;;;4.30;1.17;;;;;;;7.90;67.17;100949.53;5358169;26;20129;-48
2024/04/14 06:34:22;;;;;;;6.45;0.60;;;;;;;7.97;67.55;100950.53;5369479;26;20001;-50
2024/04/14 06:36:48;;;;;;;2.95;1.00;;;;;;;8.03;67.36;100954.94;5370861;26;20453;-52
2024/04/14 06:39:15;;;;;;;9.30;1.13;;;;;;;8.09;67.09;100955.09;5353093;26;20353;-50
2024/04/14 06:41:42;;;;;;;5.65;0.85;;;;;;;8.18;67.00;100954.44;5366000;26;20094;-51
2024/04/14 06:44:08;;;;;;;3.50;0.88;;;;;;;8.25;67.00;100955.44;5369129;26;20020;-52
2024/04/14 06:46:36;;;;;;;1.42;0.95;;;;;;;8.31;67.06;100959.00;5361684;26;20000;-50
2024/04/14 06:49:03;;;;;;;4.00;1.70;;;;;;;8.37;66.58;100955.69;5360322;26;20063;-50
2024/04/14 06:51:30;;;;;;;3.40;1.20;;;;;;;8.54;67.04;100962.97;5368573;26;20004;-49
2024/04/14 06:53:56;;;;;;;6.28;1.50;;;;;;;9.10;66.97;100964.91;5367165;26;20008;-48
2024/04/14 06:56:23;;;;;;;1.13;0.63;;;;;;;9.77;66.16;100968.56;5348318;26;20019;-51
2024/04/14 06:58:50;;;;;;;4.45;1.25;;;;;;;10.51;65.56;100960.09;5362882;26;20012;-51
2024/04/14 07:01:16;;;;;;;5.47;1.27;;;;;;;11.14;64.55;100972.03;5359582;26;20009;-49
2024/04/14 07:03:43;;;;;;;4.25;0.80;;;;;;;11.87;64.21;100968.28;5361406;26;20085;-53
2024/04/14 07:06:10;;;;;;;3.55;0.88;;;;;;;12.38;62.44;100965.13;5361508;26;20447;-51
2024/04/14 07:08:39;;;;;;;8.50;1.92;;;;;;;12.83;61.60;100979.16;5365136;26;20008;-50
2024/04/14 07:11:05;;;;;;;4.97;0.77;;;;;;;13.19;60.92;100973.16;5366724;26;20045;-51
2024/04/14 07:13:32;;;;;;;2.55;1.25;;;;;;;13.50;59.46;100978.41;5358346;26;20013;-52
2024/04/14 07:15:59;;;;;;;5.63;1.02;;;;;;;13.80;58.58;100979.28;5364798;26;20014;-51
2024/04/14 07:18:26;;;;;;;1.30;0.73;;;;;;;13.95;57.65;100978.38;5370164;26;20012;-52
2024/04/14 07:20:53;;;;;;;4.28;0.60;;;;;;;14.06;56.26;100985.31;5362841;26;20019;-50
2024/04/14 07:23:20;;;;;;;3.55;0.80;;;;;;;14.24;56.22;100987.88;5348612;26;20012;-50
2024/04/14 07:25:46;;;;;;;2.63;1.13;;;;;;;14.55;55.99;100984.28;5364464;26;20051;-52
2024/04/14 07:28:13;;;;;;;2.03;1.02;;;;;;;14.81;55.15;100988.53;5360766;26;20522;-53
2024/04/14 07:30:40;;;;;;;2.03;0.82;;;;;;;15.04;54.45;100984.94;5365599;26;20326;-50
2024/04/14 07:33:07;;;;;;;1.17;0.52;;;;;;;15.35;54.40;100984.72;5353188;26;20009;-50
2024/04/14 07:35:34;;;;;;;1.92;0.85;;;;;;;15.63;53.15;100984.50;5351593;26;19997;-53
2024/04/14 07:38:01;;;;;;;4.32;1.20;;;;;;;15.89;52.74;100985.13;5366835;26;20043;-53
2024/04/14 07:40:27;;;;;;;3.85;1.17;;;;;;;16.04;51.90;100985.00;5372054;26;20004;-53
2024/04/14 07:42:54;;;;;;;4.28;0.65;;;;;;;16.30;51.26;100990.81;5353463;26;20000;-52
2024/04/14 07:45:21;;;;;;;3.75;0.82;;;;;;;16.51;51.29;100994.09;5369890;26;20051;-49
2024/04/14 07:47:48;;;;;;;4.88;0.50;;;;;;;16.78;50.72;100992.84;5364070;26;20022;-54
2024/04/14 07:50:15;;;;;;;2.97;0.88;;;;;;;17.10;50.55;100990.69;5370999;26;20016;-53
2024/04/14 07:52:42;;;;;;;5.32;1.17;;;;;;;17.32;49.81;100992.97;5352120;26;20067;-54
2024/04/14 07:55:09;;;;;;;3.25;1.35;;;;;;;17.55;49.07;100989.13;5354024;26;20012;-50
2024/04/14 07:57:36;;;;;;;3.15;0.60;;;;;;;17.57;47.14;100992.59;5349014;26;20078;-52
2024/04/14 08:00:04;;;;;;;4.40;1.08;;;;;;;17.34;47.15;100985.97;5365392;26;20000;-50
2024/04/14 08:02:31;;;;;;;3.90;1.00;;;;;;;17.23;47.57;100980.03;5360636;26;20011;-50
2024/04/14 08:04:57;;;;;;;4.97;1.45;;;;;;;17.44;47.83;100981.44;5359524;26;20086;-52
2024/04/14 08:07:24;;;;;;;3.85;1.33;;;;;;;17.47;47.51;100977.00;5362140;26;20005;-48
2024/04/14 08:09:51;;;;;;;4.25;1.20;;;;;;;17.78;47.58;100970.38;5365683;26;20501;-52
2024/04/14 08:12:18;;;;;;;3.53;0.65;;;;;;;17.98;46.13;100970.03;5358212;26;20004;-51
2024/04/14 08:14:44;;;;;;;2.38;1.02;;;;;;;17.88;45.51;100976.31;5356186;26;20016;-52
2024/04/14 08:17:11;;;;;;;5.72;1.42;;;;;;;17.93;45.40;100973.63;5362866;26;20879;-50
2024/04/14 08:19:39;;;;;;;3.17;1.00;;;;;;;18.09;45.43;100974.22;5355196;26;20004;-50
2024/04/14 08:22:06;;;;;;;6.43;1.23;;;;;;;18.04;44.54;100970.78;5360538;26;20020;-55
2024/04/14 08:24:34;;;;;;;3.03;1.15;;;;;;;18.02;44.54;100960.34;5360868;26;20456;-52
2024/04/14 08:27:01;;;;;;;5.85;1.13;;;;;;;18.33;45.29;100966.75;5359867;26;20031;-53
2024/04/14 08:29:28;;;;;;;3.40;0.80;;;;;;;18.74;45.08;100961.50;5363838;26;20023;-55
2024/04/14 08:31:56;;;;;;;2.22;0.73;;;;;;;19.02;44.45;100961.75;5361869;26;20009;-54
2024/04/14 08:34:23;;;;;;;4.90;0.80;;;;;;;19.25;44.61;100957.72;5356076;26;20022;-56
2024/04/14 08:36:50;;;;;;;4.15;0.88;;;;;;;19.39;43.57;100964.44;5362476;26;20008;-49
2024/04/14 08:39:17;;;;;;;3.10;0.80;;;;;;;19.63;43.94;100962.91;5364683;26;20048;-57
2024/04/14 08:41:46;;;;;;;2.92;0.95;;;;;;;19.76;42.65;100963.44;5358912;26;20013;-54
2024/04/14 08:44:14;;;;;;;;;;;;;;;19.91;43.14;100963.94;5363377;26;20074;-54
2024/04/14 08:46:42;;;;;;;3.38;1.02;;;;;;;20.07;43.04;100966.19;5360431;26;19925;-54
2024/04/14 08:49:12;;;;;;;5.18;0.90;;;;;;;20.20;42.20;100959.69;5364620;26;20012;-53
2024/04/14 08:51:39;;;;;;;3.15;1.17;;;;;;;20.22;42.73;100960.50;5352198;26;20017;-54
2024/04/14 08:54:06;;;;;;;4.70;0.93;;;;;;;20.27;40.89;100953.31;5357073;26;20008;-54
2024/04/14 08:56:34;;;;;;;5.90;1.60;;;;;;;20.28;40.92;100949.81;5357139;26;20718;-54
2024/04/14 08:59:05;;;;;;;2.47;0.90;;;;;;;20.35;40.09;100957.50;5353517;26;20016;-52
2024/04/14 09:01:34;;;;;;;3.72;1.17;;;;;;;20.41;40.74;100950.28;5324340;26;20848;-54
2024/04/14 09:04:04;;;;;;;2.97;0.95;;;;;;;20.01;40.69;100954.94;5359339;26;20014;-54
2024/04/14 09:06:33;;;;;;;5.25;1.67;;;;;;;19.69;40.82;100953.16;5343617;26;20457;-51
2024/04/14 09:09:01;;;;;;;6.10;1.13;;;;;;;19.25;41.10;100956.88;5342067;26;20024;-54
2024/04/14 09:11:28;;;;;;;3.25;0.93;;;;;;;18.84;42.25;100952.53;5355874;26;20017;-54
2024/04/14 09:13:55;;;;;;;2.83;1.13;;;;;;;18.78;41.97;100943.94;5351805;26;20017;-53
2024/04/14 09:16:22;;;;;;;4.03;0.98;;;;;;;18.70;41.34;100947.59;5359819;26;22207;-53
2024/04/14 09:18:49;;;;;;;2.70;0.88;;;;;;;18.53;41.67;100937.47;5359974;26;20341;-54
2024/04/14 09:21:16;;;;;;;5.28;0.63;;;;;;;18.52;42.61;100940.13;5349190;26;20644;-52
2024/04/14 09:23:54;;;;;;;3.17;1.15;;;;;;;18.29;42.57;100941.47;5346765;26;20078;-54
2024/04/14 09:26:23;;;;;;;3.40;1.45;;;;;;;18.37;43.03;100942.19;5361667;26;20013;-55
2024/04/14 09:29:01;;;;;;;2.40;0.82;;;;;;;18.24;42.93;100941.59;5361454;26;20005;-54
2024/04/14 09:31:28;;;;;;;3.67;0.95;;;;;;;18.20;43.13;100940.78;5340241;26;20014;-52
2024/04/14 09:33:55;;;;;;;2.78;0.93;;;;;;;18.34;43.21;100937.88;5353375;26;20008;-58
2024/04/14 09:36:26;;;;;;;3.17;1.08;;;;;;;18.34;43.11;100939.66;5353682;26;20446;-55
2024/04/14 09:38:54;;;;;;;4.03;0.85;;;;;;;18.68;43.77;100931.03;5352826;26;20067;-56
2024/04/14 09:41:21;;;;;;;5.38;1.45;;;;;;;18.90;43.37;100933.16;5366333;26;20004;-57
2024/04/14 09:43:51;;;;;;;4.10;0.85;;;;;;;18.99;42.74;100940.81;5341633;26;20009;-54
2024/04/14 09:46:18;;;;;;;4.10;1.02;;;;;;;18.73;42.34;100928.31;5355770;26;20016;-52
2024/04/14 09:48:45;;;;;;;3.05;0.65;;;;;;;18.45;42.21;100928.91;5351663;26;20015;-55
2024/04/14 09:51:14;;;;;;;7.38;0.82;;;;;;;18.20;42.80;100925.06;5349202;26;20342;-55
2024/04/14 09:53:42;;;;;;;4.00;0.93;;;;;;;18.16;42.80;100926.00;5368068;26;20016;-52
2024/04/14 09:56:09;;;;;;;2.33;1.33;;;;;;;18.45;43.56;100929.78;5335099;26;20012;-56
2024/04/14 09:58:36;;;;;;;4.63;1.17;;;;;;;18.48;41.95;100929.69;5351769;26;20323;-57
2024/04/14 10:01:10;;;;;;;3.90;0.80;;;;;;;18.37;42.45;100936.94;5360960;26;20016;-57
2024/04/14 10:03:39;;;;;;;2.58;0.75;;;;;;;18.20;42.37;100934.66;5356082;26;20019;-57
2024/04/14 10:06:09;;;;;;;2.53;0.85;;;;;;;18.15;41.97;100932.16;5358372;26;20532;-56
2024/04/14 10:08:37;;;;;;;2.83;0.77;;;;;;;18.21;41.93;100925.94;5362527;26;20086;-55
2024/04/14 10:11:04;;;;;;;5.82;1.35;;;;;;;18.04;41.59;100929.69;5363729;26;20043;-53
2024/04/14 10:13:50;;;;;;;2.05;1.08;;;;;;;18.07;41.73;100915.69;5350736;26;20022;-58
2024/04/14 10:16:19;;;;;;;3.13;1.33;;;;;;;18.37;42.52;100921.19;5358768;26;20019;-55
2024/04/14 10:18:47;;;;;;;2.80;1.23;;;;;;;18.61;41.82;100922.44;5355055;26;20016;-57
2024/04/14 10:21:17;;;;;;;3.58;1.15;;;;;;;18.75;41.70;100921.28;5359035;26;20016;-56
2024/04/14 10:23:46;;;;;;;2.03;0.75;;;;;;;18.91;41.60;100926.16;5365438;26;20008;-53
2024/04/14 10:26:15;;;;;;;2.35;1.27;;;;;;;19.06;41.33;100928.44;5360212;26;20122;-58
2024/04/14 10:28:57;;;;;;;6.18;1.40;;;;;;;19.01;40.36;100928.53;5364055;26;20487;-53
2024/04/14 10:31:26;;;;;;;2.15;0.70;;;;;;;18.91;40.79;100932.25;5356579;26;20017;-57
2024/04/14 10:34:11;;;;;;;3.92;1.05;;;;;;;18.66;39.69;100922.34;5362297;26;20004;-57
2024/04/14 10:36:40;;;;;;;2.60;0.73;;;;;;;18.66;40.86;100914.47;5354572;26;20017;-57
2024/04/14 10:39:14;;;;;;;1.88;0.50;;;;;;;18.53;41.14;100913.88;5353322;26;20008;-55
2024/04/14 10:41:41;;;;;;;3.50;0.80;;;;;;;18.26;41.08;100910.06;5358844;26;20052;-56
2024/04/14 10:44:17;;;;;;;3.75;0.93;;;;;;;17.92;40.96;100911.59;5362963;26;20048;-54
2024/04/14 10:46:46;;;;;;;5.80;0.98;;;;;;;17.69;41.46;100900.69;5354195;26;20024;-52
2024/04/14 10:49:14;;;;;;;5.10;1.02;;;;;;;17.63;42.90;100898.16;5359896;26;20004;-53
2024/04/14 10:51:42;;;;;;;3.72;1.55;;;;;;;17.87;43.22;100901.22;5334727;26;20019;-53
2024/04/14 10:54:09;;;;;;;2.78;1.10;;;;;;;17.99;42.74;100895.75;5357827;26;20008;-57
2024/04/14 10:56:36;;;;;;;2.03;0.82;;;;;;;18.10;41.92;100895.53;5359218;26;20020;-54
2024/04/14 10:59:02;;;;;;;2.03;0.70;;;;;;;18.28;42.66;100884.69;5361619;26;20012;-56
2024/04/14 11:01:30;;;;;;;3.85;1.48;;;;;;;18.47;42.97;100886.03;5361735;26;20399;-56
2024/04/14 11:03:57;;;;;;;3.88;0.88;;;;;;;18.56;41.82;100879.72;5362587;26;20068;-57
2024/04/14 11:06:25;;;;;;;3.28;0.93;;;;;;;18.52;41.66;100877.19;5358531;26;20064;-55
2024/04/14 11:08:52;;;;;;;4.65;1.25;;;;;;;18.42;42.15;100874.78;5357202;26;20074;-55
2024/04/14 11:11:19;;;;;;;5.80;1.30;;;;;;;18.43;42.30;100866.00;5353767;26;20001;-59
2024/04/14 11:13:46;;;;;;;5.03;1.08;;;;;;;18.35;40.99;100875.81;5354989;26;20171;-51
2024/04/14 11:16:12;;;;;;;5.22;0.93;;;;;;;18.14;41.47;100867.53;5359571;26;20082;-56
2024/04/14 11:18:40;;;;;;;4.35;0.80;;;;;;;18.07;41.77;100861.50;5356845;26;20013;-56
2024/04/14 11:21:07;;;;;;;3.67;1.00;;;;;;;17.94;42.09;100860.88;5359934;26;20000;-57
2024/04/14 11:23:34;;;;;;;3.78;1.00;;;;;;;17.71;41.65;100854.38;5346685;26;20040;-52
2024/04/14 11:26:00;;;;;;;3.08;1.20;;;;;;;17.77;41.40;100844.66;5354813;26;20008;-57
2024/04/14 11:28:28;;;;;;;4.13;0.98;;;;;;;17.76;42.10;100832.47;5360210;26;20000;-60
2024/04/14 11:30:55;;;;;;;1.73;0.60;;;;;;;17.54;41.02;100830.25;5351017;26;20016;-54